Time;durP1;ratioP1;P1;durP2;ratioP2;P2;SDS_P1;SDS_P2;PMS_P1;PMS_P2;Temp;Humidity;BMP_temperature;BMP_pressure;BME280_temperature;BME280_humidity;BME280_pressure;Samples;Min_cycle;Max_cycle;Signal;HPM_P1;HPM_P2
2023/01/28 00:00:25;;;;;;;;;24.50;21.25;;;;;7.40;62.67;102090.75;2061527;28;45678;-66
2023/01/28 00:01:26;;;;;;;;;33.75;26.75;;;;;7.40;62.75;102090.75;2069304;28;46984;-67
2023/01/28 00:02:26;;;;;;;;;23.75;20.25;;;;;7.41;62.86;102095.16;2060975;28;45897;-67
2023/01/28 00:03:27;;;;;;;;;30.00;26.50;;;;;7.41;62.54;102092.53;2060435;28;45652;-67
2023/01/28 00:04:27;;;;;;;;;32.00;25.50;;;;;7.39;62.79;102097.78;2069760;28;46765;-67
2023/01/28 00:05:28;;;;;;;;;30.50;29.00;;;;;7.41;62.82;102100.44;2069694;28;46456;-66
2023/01/28 00:06:29;;;;;;;;;27.40;24.20;;;;;7.39;62.83;102092.50;2068087;28;45681;-66
2023/01/28 00:07:29;;;;;;;;;29.75;25.50;;;;;7.40;62.59;102098.69;2069253;28;46524;-67
2023/01/28 00:08:30;;;;;;;;;28.00;25.00;;;;;7.40;62.85;102093.41;2060612;28;46268;-67
2023/01/28 00:09:30;;;;;;;;;23.75;23.50;;;;;7.40;62.71;102099.56;2057971;28;46036;-68
2023/01/28 00:10:30;;;;;;;;;25.25;21.25;;;;;7.40;62.74;102094.28;2069402;28;46420;-67
2023/01/28 00:11:31;;;;;;;;;30.75;24.50;;;;;7.40;62.62;102093.41;2068385;28;45524;-66
2023/01/28 00:12:31;;;;;;;;;28.75;24.75;;;;;7.40;62.93;102089.00;2067786;28;45721;-68
2023/01/28 00:13:33;;;;;;;;;27.25;26.00;;;;;7.41;62.86;102098.69;2065426;28;46677;-68
2023/01/28 00:14:33;;;;;;;;;21.60;20.80;;;;;7.40;62.73;102094.28;2063639;28;46921;-67
2023/01/28 00:15:33;;;;;;;;;25.50;23.50;;;;;7.40;62.88;102099.56;2068343;27;45928;-67
2023/01/28 00:16:34;;;;;;;;;25.00;23.75;;;;;7.39;62.59;102089.88;2071141;28;45456;-68
2023/01/28 00:17:35;;;;;;;;;23.25;20.50;;;;;7.38;62.70;102088.97;2066144;28;46854;-69
2023/01/28 00:18:36;;;;;;;;;33.80;28.80;;;;;7.38;62.70;102091.63;2054779;28;46497;-69
2023/01/28 00:19:37;;;;;;;;;24.20;22.40;;;;;7.39;62.67;102092.50;2048598;28;46689;-68
2023/01/28 00:20:37;;;;;;;;;25.00;22.25;;;;;7.37;62.78;102095.13;2056445;28;46597;-68
2023/01/28 00:21:37;;;;;;;;;28.75;25.00;;;;;7.37;62.74;102095.13;2058434;28;46380;-67
2023/01/28 00:22:38;;;;;;;;;24.50;23.50;;;;;7.38;62.67;102094.25;2051171;28;45904;-69
2023/01/28 00:23:40;;;;;;;;;30.75;27.50;;;;;7.38;62.50;102088.97;2052522;28;47410;-67
2023/01/28 00:24:40;;;;;;;;;13.20;9.80;;;;;7.39;62.64;102089.88;2051923;28;47041;-68
2023/01/28 00:25:41;;;;;;;;;25.50;23.75;;;;;7.39;62.35;102089.88;2053612;28;46416;-68
2023/01/28 00:26:41;;;;;;;;;22.75;18.00;;;;;7.38;62.55;102085.47;2045517;28;46644;-67
2023/01/28 00:27:42;;;;;;;;;28.50;23.75;;;;;7.38;62.59;102088.97;2044721;28;46759;-67
2023/01/28 00:28:43;;;;;;;;;27.25;25.00;;;;;7.38;62.78;102094.25;2053354;28;46126;-67
2023/01/28 00:29:43;;;;;;;;;30.25;28.75;;;;;7.38;62.63;102088.97;2050072;28;46742;-66
2023/01/28 00:30:43;;;;;;;;;24.25;23.75;;;;;7.39;62.48;102095.16;2053992;28;45653;-67
2023/01/28 00:31:43;;;;;;;;;20.50;20.25;;;;;7.40;62.56;102090.75;2051865;28;46795;-66
2023/01/28 00:32:44;;;;;;;;;32.75;29.00;;;;;7.39;62.61;102095.16;2052154;28;45631;-66
2023/01/28 00:33:46;;;;;;;;;22.50;22.25;;;;;7.38;62.59;102096.03;2053607;28;46206;-65
2023/01/28 00:34:48;;;;;;;;;25.00;22.40;;;;;7.37;62.61;102100.41;2053679;28;45310;-64
2023/01/28 00:36:02;;;;;;;;;26.80;24.20;;;;;7.37;62.51;102094.25;2061617;28;47196;-66
2023/01/28 00:37:02;;;;;;;;;20.60;19.60;;;;;7.36;62.46;102103.91;2058897;28;45945;-66
2023/01/28 00:38:03;;;;;;;;;22.25;22.25;;;;;7.36;62.43;102101.25;2049808;28;46083;-66
2023/01/28 00:39:05;;;;;;;;;32.00;28.25;;;;;7.36;62.48;102101.25;2053164;28;46540;-66
2023/01/28 00:40:08;;;;;;;;;24.60;22.00;;;;;7.36;62.50;102098.59;2052097;28;46601;-66
2023/01/28 00:41:17;;;;;;;;;25.60;23.40;;;;;7.35;62.35;102091.56;2053145;28;46983;-65
2023/01/28 00:42:17;;;;;;;;;18.80;16.60;;;;;7.36;62.44;102095.09;2050805;28;45296;-65
2023/01/28 00:43:18;;;;;;;;;33.25;27.00;;;;;7.35;62.72;102091.56;2049100;28;47035;-66
2023/01/28 00:44:19;;;;;;;;;21.50;17.00;;;;;7.35;62.25;102096.84;2053055;28;46667;-67
2023/01/28 00:45:19;;;;;;;;;21.60;21.60;;;;;7.35;62.33;102088.03;2045184;28;46147;-67
2023/01/28 00:46:21;;;;;;;;;22.50;18.50;;;;;7.36;62.50;102087.16;2045412;28;46697;-67
2023/01/28 00:47:22;;;;;;;;;14.20;11.80;;;;;7.36;62.49;102090.69;2053012;28;46788;-66
2023/01/28 00:48:22;;;;;;;;;15.25;12.75;;;;;7.35;62.32;102081.00;2053043;28;46261;-67
2023/01/28 00:49:22;;;;;;;;;25.50;21.75;;;;;7.36;62.49;102087.16;2052846;28;46243;-66
2023/01/28 00:50:23;;;;;;;;;27.50;25.75;;;;;7.37;62.57;102097.78;2069234;27;46716;-66
2023/01/28 00:51:23;;;;;;;;;26.25;24.00;;;;;7.36;62.49;102088.03;2063313;27;46911;-65
2023/01/28 00:52:24;;;;;;;;;21.00;21.00;;;;;7.36;62.51;102089.81;2068827;28;45575;-66
2023/01/28 00:53:25;;;;;;;;;24.20;24.20;;;;;7.36;62.49;102079.25;2069947;28;46492;-66
2023/01/28 00:54:25;;;;;;;;;27.25;25.50;;;;;7.36;62.30;102087.16;2069231;27;46892;-66
2023/01/28 00:55:27;;;;;;;;;24.00;23.00;;;;;7.36;62.47;102092.44;2059722;28;46419;-66
2023/01/28 00:56:27;;;;;;;;;24.00;23.40;;;;;7.36;62.50;102093.31;2070696;28;46510;-67
2023/01/28 00:57:28;;;;;;;;;24.25;23.25;;;;;7.36;62.37;102087.16;2064559;28;45134;-66
2023/01/28 00:58:28;;;;;;;;;25.75;23.50;;;;;7.36;62.39;102092.44;2065962;28;46363;-67
2023/01/28 00:59:28;;;;;;;;;23.25;20.75;;;;;7.35;62.48;102094.19;2069856;28;46437;-66
2023/01/28 01:00:29;;;;;;;;;29.25;25.25;;;;;7.36;62.50;102095.09;2062704;28;46775;-67
2023/01/28 01:01:29;;;;;;;;;21.25;20.25;;;;;7.37;62.42;102091.59;2057274;28;45917;-65
2023/01/28 01:02:30;;;;;;;;;22.50;22.00;;;;;7.36;62.09;102092.44;2067888;28;46300;-67
2023/01/28 01:03:30;;;;;;;;;21.00;19.60;;;;;7.35;62.05;102093.31;2088082;27;46729;-67
2023/01/28 01:04:34;;;;;;;;;21.25;19.75;;;;;7.36;62.36;102085.41;2103746;27;46440;-66
2023/01/28 01:05:35;;;;;;;;;25.40;22.80;;;;;7.37;62.13;102088.97;2070362;28;45823;-66
2023/01/28 01:06:38;;;;;;;;;24.00;23.00;;;;;7.36;62.22;102092.44;2070451;28;46740;-66
2023/01/28 01:07:42;;;;;;;;;27.00;25.80;;;;;7.37;62.18;102097.78;2069573;27;45244;-66
2023/01/28 01:08:48;;;;;;;;;22.80;20.80;;;;;7.36;62.21;102093.31;2063228;28;46364;-66
2023/01/28 01:09:49;;;;;;;;;18.60;17.80;;;;;7.36;62.26;102097.72;2063787;28;47012;-66
2023/01/28 01:10:49;;;;;;;;;23.00;20.50;;;;;7.34;62.23;102096.81;2067710;28;46246;-66
2023/01/28 01:11:49;;;;;;;;;24.00;24.00;;;;;7.33;62.01;102093.28;2069872;27;46834;-68
2023/01/28 01:12:50;;;;;;;;;22.75;20.50;;;;;7.33;62.22;102102.97;2068117;27;46453;-67
2023/01/28 01:13:53;;;;;;;;;23.50;21.00;;;;;7.32;62.16;102101.19;2069043;28;47092;-66
2023/01/28 01:14:55;;;;;;;;;23.60;20.40;;;;;7.33;62.21;102105.63;2062388;28;46798;-67
2023/01/28 01:16:02;;;;;;;;;22.20;20.00;;;;;7.33;62.34;102105.63;2063942;27;46678;-66
2023/01/28 01:17:03;;;;;;;;;21.80;21.80;;;;;7.32;62.08;102103.84;2071015;28;46419;-67
2023/01/28 01:18:03;;;;;;;;;23.25;22.50;;;;;7.31;62.08;102104.72;2070474;28;47042;-66
2023/01/28 01:19:04;;;;;;;;;23.25;17.75;;;;;7.31;62.27;102099.44;2075650;27;46578;-65
2023/01/28 01:20:08;;;;;;;;;22.20;21.20;;;;;7.31;62.14;102100.31;2067260;27;46964;-67
2023/01/28 01:21:10;;;;;;;;;23.80;23.60;;;;;7.31;62.21;102113.53;2066232;27;46569;-67
2023/01/28 01:22:11;;;;;;;;;19.00;19.00;;;;;7.32;62.33;102110.00;2064031;28;46412;-68
2023/01/28 01:23:11;;;;;;;;;24.00;21.75;;;;;7.33;62.03;102108.25;2065808;28;46584;-66
2023/01/28 01:24:11;;;;;;;;;21.00;20.00;;;;;7.33;62.08;102110.91;2065657;28;46692;-66
2023/01/28 01:25:13;;;;;;;;;20.75;19.50;;;;;7.32;62.08;102111.75;2069142;28;46756;-65
2023/01/28 01:26:14;;;;;;;;;21.40;19.80;;;;;7.32;61.99;102115.28;2069377;27;46578;-66
2023/01/28 01:27:15;;;;;;;;;22.75;20.50;;;;;7.31;62.16;102105.59;2069011;28;46241;-66
2023/01/28 01:28:15;;;;;;;;;22.50;20.00;;;;;7.31;62.15;102104.72;2070087;28;46677;-67
2023/01/28 01:29:15;;;;;;;;;26.25;24.00;;;;;7.31;61.85;102113.53;2070154;28;45850;-66
2023/01/28 01:30:16;;;;;;;;;26.25;24.00;;;;;7.31;62.06;102116.16;2070147;28;46300;-67
2023/01/28 01:31:19;;;;;;;;;22.50;18.00;;;;;7.30;61.99;102114.38;2063752;28;46594;-66
2023/01/28 01:32:21;;;;;;;;;22.20;21.40;;;;;7.30;61.92;102110.88;2061883;28;45747;-67
2023/01/28 01:33:21;;;;;;;;;22.00;18.20;;;;;7.30;61.89;102110.88;2069536;27;46417;-66
2023/01/28 01:34:21;;;;;;;;;26.00;21.75;;;;;7.30;62.06;102103.81;2070190;28;46825;-66
2023/01/28 01:35:22;;;;;;;;;22.75;21.75;;;;;7.30;62.05;102110.88;2063499;28;46707;-66
2023/01/28 01:36:22;;;;;;;;;19.50;19.25;;;;;7.30;62.09;102109.09;2070034;28;45928;-66
2023/01/28 01:37:23;;;;;;;;;25.00;21.25;;;;;7.31;62.07;102110.00;2070836;28;47185;-66
2023/01/28 01:38:23;;;;;;;;;16.25;16.25;;;;;7.30;62.07;102114.38;2069818;27;45799;-66
2023/01/28 01:39:24;;;;;;;;;27.50;24.00;;;;;7.31;62.14;102115.28;2068053;28;46282;-66
2023/01/28 01:40:24;;;;;;;;;19.50;18.50;;;;;7.30;61.74;102111.75;2068449;28;46566;-65
2023/01/28 01:41:30;;;;;;;;;21.50;19.00;;;;;7.30;61.98;102113.50;2062139;28;46826;-66
2023/01/28 01:42:31;;;;;;;;;18.80;18.80;;;;;7.30;62.01;102117.03;2065551;28;47017;-66
2023/01/28 01:43:50;;;;;;;;;22.00;21.00;;;;;7.29;62.00;102117.91;2069407;28;46871;-66
2023/01/28 01:45:01;;;;;;;;;22.60;19.00;;;;;7.28;61.95;102116.13;2065582;28;46122;-65
2023/01/28 01:46:02;;;;;;;;;20.40;16.60;;;;;7.27;61.88;102119.63;2068762;28;46807;-65
2023/01/28 01:47:02;;;;;;;;;21.75;20.50;;;;;7.27;61.93;102119.63;2070746;27;46473;-66
2023/01/28 01:48:16;;;;;;;;;23.50;22.75;;;;;7.28;62.26;102120.53;2077163;28;46921;-65
2023/01/28 01:49:25;;;;;;;;;22.00;21.40;;;;;7.27;62.00;102118.75;2058097;28;45670;-66
2023/01/28 01:51:01;;;;;;;;;21.00;19.80;;;;;7.27;62.10;102119.63;2072417;27;46398;-65
2023/01/28 01:52:07;;;;;;;;;24.20;23.40;;;;;7.27;62.06;102116.09;2083926;28;46394;-65
2023/01/28 01:53:17;;;;;;;;;24.60;24.40;;;;;7.27;62.08;102117.00;2051247;28;46501;-66
2023/01/28 01:54:19;;;;;;;;;21.20;18.00;;;;;7.27;62.03;102121.38;2054885;28;46322;-65
2023/01/28 01:55:24;;;;;;;;;20.00;20.00;;;;;7.26;61.71;102115.22;2052670;28;46787;-64
2023/01/28 01:56:30;;;;;;;;;19.40;19.40;;;;;7.25;61.87;102113.44;2094976;28;46555;-65
2023/01/28 01:57:33;;;;;;;;;24.00;24.00;;;;;7.26;61.83;102116.97;2085958;28;46294;-65
2023/01/28 01:58:39;;;;;;;;;23.00;20.60;;;;;7.24;62.05;102103.75;2073879;28;46711;-65
2023/01/28 01:59:42;;;;;;;;;24.20;20.80;;;;;7.25;61.92;102110.81;2044833;28;46457;-65
2023/01/28 02:00:43;;;;;;;;;21.00;18.20;;;;;7.25;61.99;102110.81;2048534;28;46907;-66
2023/01/28 02:01:47;;;;;;;;;25.00;22.75;;;;;7.26;61.67;102112.59;2030035;28;46383;-65
2023/01/28 02:02:50;;;;;;;;;24.60;23.60;;;;;7.27;61.81;102113.47;2036620;28;46400;-66
2023/01/28 02:04:14;;;;;;;;;20.60;19.20;;;;;7.26;61.74;102119.63;2071984;28;46036;-64
2023/01/28 02:05:19;;;;;;;;;27.40;25.20;;;;;7.26;61.71;102117.88;2087484;28;46968;-65
2023/01/28 02:06:20;;;;;;;;;19.60;18.20;;;;;7.26;61.74;102120.50;2087534;28;46363;-65
2023/01/28 02:07:21;;;;;;;;;22.60;21.00;;;;;7.27;61.85;102114.34;2052464;28;46849;-65
2023/01/28 02:08:21;;;;;;;;;20.50;18.50;;;;;7.27;61.74;102118.75;2061492;28;46821;-64
2023/01/28 02:09:21;;;;;;;;;26.25;21.00;;;;;7.26;61.76;102116.97;2052784;28;46635;-64
2023/01/28 02:10:23;;;;;;;;;22.25;17.00;;;;;7.27;61.74;102121.38;2073307;28;46279;-65
2023/01/28 02:11:29;;;;;;;;;22.20;21.00;;;;;7.26;61.97;102117.88;2050218;28;46119;-65
2023/01/28 02:12:57;;;;;;;;;25.80;21.80;;;;;7.25;61.84;102121.38;2087713;28;45974;-65
2023/01/28 02:14:02;;;;;;;;;24.60;21.60;;;;;7.25;62.06;102124.00;2050236;28;47615;-65
2023/01/28 02:15:12;;;;;;;;;22.60;20.80;;;;;7.25;61.88;102120.47;2076978;28;46898;-64
2023/01/28 02:16:13;;;;;;;;;22.20;21.00;;;;;7.24;61.92;102124.88;2052158;28;45972;-65
2023/01/28 02:17:13;;;;;;;;;18.50;16.25;;;;;7.24;61.83;102118.69;2052628;28;46191;-65
2023/01/28 02:18:14;;;;;;;;;20.80;18.00;;;;;7.24;61.61;102116.03;2057067;28;47679;-65
2023/01/28 02:19:18;;;;;;;;;23.25;21.25;;;;;7.21;61.84;102119.53;2056800;28;46244;-65
2023/01/28 02:20:23;;;;;;;;;17.60;17.00;;;;;7.21;61.82;102121.28;2050148;28;46381;-66
2023/01/28 02:21:46;;;;;;;;;17.20;17.00;;;;;7.21;61.90;102123.94;2052089;28;46785;-68
2023/01/28 02:23:08;;;;;;;;;21.80;20.40;;;;;7.20;62.15;102117.75;2055329;28;46840;-66
2023/01/28 02:24:29;;;;;;;;;23.60;21.60;;;;;7.20;61.65;102122.16;2044426;28;45769;-67
2023/01/28 02:25:39;;;;;;;;;22.20;18.80;;;;;7.20;61.81;102128.31;2038646;28;46859;-67
2023/01/28 02:27:02;;;;;;;;;24.80;24.40;;;;;7.20;61.89;102123.03;2047979;28;46044;-68
2023/01/28 02:28:36;;;;;;;;;27.00;21.40;;;;;7.20;61.73;102116.88;2050833;28;46500;-67
2023/01/28 02:29:39;;;;;;;;;27.20;22.60;;;;;7.20;61.78;102119.50;2069967;27;46627;-66
2023/01/28 02:30:47;;;;;;;;;21.80;19.20;;;;;7.19;61.88;102117.75;2069923;28;46656;-67
2023/01/28 02:32:09;;;;;;;;;21.20;19.00;;;;;7.18;61.75;102116.84;2068793;28;46682;-68
2023/01/28 02:33:42;;;;;;;;;26.20;23.00;;;;;7.19;62.07;102120.38;2068083;27;46562;-66
2023/01/28 02:34:48;;;;;;;;;25.20;23.60;;;;;7.19;61.84;102120.38;2093050;28;46770;-66
2023/01/28 02:35:53;;;;;;;;;24.20;22.20;;;;;7.20;61.97;102122.16;2094384;28;46627;-66
2023/01/28 02:37:11;;;;;;;;;23.20;22.00;;;;;7.21;61.73;102116.00;2087057;28;45744;-66
2023/01/28 02:38:28;;;;;;;;;27.00;24.00;;;;;7.21;61.84;102124.81;2089107;28;46937;-66
2023/01/28 02:39:35;;;;;;;;;25.20;22.20;;;;;7.20;61.56;102125.69;2093816;28;46780;-66
2023/01/28 02:41:01;;;;;;;;;25.20;23.80;;;;;7.18;61.81;102130.06;2095144;28;46198;-67
2023/01/28 02:42:08;;;;;;;;;27.40;24.20;;;;;7.20;61.90;102133.59;2087729;28;46575;-67
2023/01/28 02:43:09;;;;;;;;;27.80;22.40;;;;;7.22;61.83;102125.69;2090520;28;46860;-66
2023/01/28 02:44:09;;;;;;;;;21.75;21.75;;;;;7.22;61.84;102123.94;2091641;28;46095;-66
2023/01/28 02:45:19;;;;;;;;;24.75;21.25;;;;;7.22;61.47;102123.06;2094575;28;46960;-67
2023/01/28 02:47:56;;;;;;;;;23.00;21.40;;;;;7.19;61.77;102121.25;2087787;28;45638;-67
2023/01/28 02:48:58;;;;;;;;;27.20;23.00;;;;;7.18;61.39;102127.41;2094108;28;46633;-66
2023/01/28 02:50:02;;;;;;;;;25.40;23.20;;;;;7.17;61.50;102127.41;2093038;28;45894;-66
2023/01/28 02:51:30;;;;;;;;;30.80;25.40;;;;;7.16;61.80;102115.94;2086700;28;46655;-66
2023/01/28 02:54:09;;;;;;;;;25.20;20.40;;;;;7.14;61.73;102127.34;2092789;28;46605;-66
2023/01/28 02:55:27;;;;;;;;;27.80;22.60;;;;;7.13;61.73;102120.31;2094988;28;46360;-67
2023/01/28 02:56:36;;;;;;;;;18.00;17.80;;;;;7.13;61.86;102122.94;2094701;28;45387;-66
2023/01/28 02:57:46;;;;;;;;;22.40;22.40;;;;;7.11;61.77;102114.97;2094848;28;46885;-66
2023/01/28 03:00:37;;;;;;;;;27.80;21.60;;;;;7.10;61.75;102121.13;2095375;28;47255;-66
2023/01/28 03:01:44;;;;;;;;;26.20;21.00;;;;;7.09;61.60;102108.78;2096050;28;45143;-65
2023/01/28 03:02:56;;;;;;;;;24.60;22.20;;;;;7.07;61.75;102111.41;2095334;28;45913;-66
2023/01/28 03:04:07;;;;;;;;;23.20;21.80;;;;;7.08;61.73;102117.56;2093087;28;46820;-66
2023/01/28 03:05:37;;;;;;;;;18.60;16.40;;;;;7.06;61.47;102111.38;2100570;28;46849;-67
2023/01/28 03:06:51;;;;;;;;;24.00;22.60;;;;;7.05;61.63;102115.78;2099431;28;46925;-65
2023/01/28 03:07:52;;;;;;;;;21.20;20.60;;;;;7.04;61.74;102121.03;2100386;28;46445;-66
2023/01/28 03:10:20;;;;;;;;;23.80;21.60;;;;;7.01;61.78;102124.53;2094083;28;46547;-68
2023/01/28 03:37:52;;;;;;;;;20.00;19.00;;;;;6.93;61.89;102139.34;2066220;28;46485;-66
2023/01/28 03:38:52;;;;;;;;;25.20;20.80;;;;;6.94;61.75;102143.75;2067497;27;46567;-66
2023/01/28 03:39:56;;;;;;;;;23.50;19.25;;;;;6.94;61.81;102140.22;2058335;28;45440;-67
2023/01/28 03:40:59;;;;;;;;;25.00;21.20;;;;;6.94;61.71;102143.75;2054120;28;46918;-66
2023/01/28 03:42:09;;;;;;;;;26.80;24.00;;;;;6.94;61.59;102145.50;2057814;28;46759;-67
2023/01/28 03:43:09;;;;;;;;;27.60;22.40;;;;;6.96;61.82;102151.69;2070143;27;46396;-66
2023/01/28 03:45:28;;;;;;;;;27.60;24.40;;;;;6.97;61.75;102153.47;2068386;28;46450;-66
2023/01/28 03:46:28;;;;;;;;;22.00;19.25;;;;;6.96;61.91;102144.66;2069585;28;46175;-64
2023/01/28 03:47:30;;;;;;;;;29.25;26.00;;;;;6.96;61.53;102149.06;2068949;28;46226;-65
2023/01/28 03:48:31;;;;;;;;;21.00;19.20;;;;;6.95;61.60;102140.25;2069749;28;46953;-65
2023/01/28 03:49:32;;;;;;;;;24.75;21.50;;;;;6.95;61.60;102153.44;2059824;28;45329;-65
2023/01/28 03:50:32;;;;;;;;;26.25;25.75;;;;;6.95;61.78;102145.53;2060090;28;46225;-65
2023/01/28 03:51:32;;;;;;;;;28.25;23.50;;;;;6.96;61.62;102146.41;2064041;28;46448;-66
2023/01/28 03:52:33;;;;;;;;;19.75;18.25;;;;;6.97;61.81;102146.44;2069647;28;45835;-66
2023/01/28 03:53:33;;;;;;;;;20.50;19.25;;;;;6.97;61.62;102148.19;2070071;28;46281;-66
2023/01/28 03:54:33;;;;;;;;;21.25;21.25;;;;;6.98;61.51;102147.31;2067459;28;46612;-66
2023/01/28 03:55:33;;;;;;;;;27.75;24.25;;;;;6.98;61.64;102148.22;2067094;28;46677;-65
2023/01/28 03:56:39;;;;;;;;;21.50;20.75;;;;;6.99;61.68;102147.38;2064031;28;46756;-65
2023/01/28 03:57:39;;;;;;;;;26.00;21.80;;;;;7.00;61.45;102149.16;2067260;28;46908;-65
2023/01/28 03:58:51;;;;;;;;;21.50;16.75;;;;;7.01;61.63;102145.66;2060679;28;46703;-66
2023/01/28 03:59:52;;;;;;;;;25.00;23.60;;;;;7.03;61.48;102149.19;2062545;28;46363;-65
2023/01/28 04:00:53;;;;;;;;;22.40;20.60;;;;;7.04;61.54;102148.31;2068809;27;46965;-66
2023/01/28 04:01:54;;;;;;;;;26.25;24.50;;;;;7.05;61.32;102151.84;2069706;28;46222;-66
2023/01/28 04:02:54;;;;;;;;;26.20;25.20;;;;;7.04;61.48;102143.03;2068792;27;46372;-65
2023/01/28 04:03:54;;;;;;;;;22.25;20.75;;;;;7.04;61.57;102150.06;2067632;27;45971;-66
2023/01/28 04:04:57;;;;;;;;;21.50;20.50;;;;;7.04;61.59;102147.44;2066102;28;45720;-64
2023/01/28 04:06:01;;;;;;;;;25.00;23.00;;;;;7.04;61.30;102150.06;2068468;28;46111;-65
2023/01/28 04:07:01;;;;;;;;;21.80;21.00;;;;;7.02;61.36;102150.06;2063409;28;46629;-66
2023/01/28 04:08:02;;;;;;;;;24.25;22.50;;;;;7.01;61.34;102147.41;2069578;28;46483;-65
2023/01/28 04:09:04;;;;;;;;;23.25;22.75;;;;;7.02;61.30;102159.72;2067768;27;46328;-66
2023/01/28 04:10:07;;;;;;;;;31.00;22.00;;;;;7.02;61.51;102152.69;2064821;28;46595;-65
2023/01/28 04:11:18;;;;;;;;;30.00;22.80;;;;;7.04;61.16;102155.34;2069557;27;47325;-65
2023/01/28 04:12:19;;;;;;;;;20.40;20.20;;;;;7.04;61.27;102161.53;2068480;27;47055;-64
2023/01/28 04:13:20;;;;;;;;;20.25;18.50;;;;;7.02;61.35;102163.25;2068304;28;46783;-66
2023/01/28 04:14:20;;;;;;;;;20.60;19.00;;;;;7.03;61.19;102159.75;2069980;27;46553;-66
2023/01/28 04:15:21;;;;;;;;;22.25;22.00;;;;;7.03;61.50;102167.66;2069570;28;46536;-66
2023/01/28 04:16:22;;;;;;;;;21.60;21.00;;;;;7.03;61.37;102162.38;2069605;27;45055;-66
2023/01/28 04:17:23;;;;;;;;;19.00;15.25;;;;;7.04;61.34;102158.88;2091659;28;46087;-65
2023/01/28 04:18:26;;;;;;;;;24.80;20.40;;;;;7.05;61.50;102159.78;2081953;28;47133;-65
2023/01/28 04:19:27;;;;;;;;;14.00;12.00;;;;;7.05;61.40;102155.38;2052250;28;45604;-66
2023/01/28 04:20:28;;;;;;;;;26.60;24.20;;;;;7.06;61.60;102162.44;2061067;28;46985;-66
2023/01/28 04:21:28;;;;;;;;;25.25;20.75;;;;;7.07;61.24;102161.56;2067653;28;46489;-66
2023/01/28 04:22:28;;;;;;;;;27.50;23.50;;;;;7.06;61.18;102156.25;2067679;28;46312;-66
2023/01/28 04:23:28;;;;;;;;;23.50;23.50;;;;;7.04;61.34;102158.88;2069803;27;45652;-66
2023/01/28 04:24:29;;;;;;;;;22.25;22.00;;;;;7.05;61.34;102158.00;2064483;28;46349;-67
2023/01/28 04:25:30;;;;;;;;;26.00;23.75;;;;;7.06;61.18;102161.53;2061206;28;46817;-66
2023/01/28 04:26:30;;;;;;;;;27.60;25.40;;;;;7.05;60.98;102163.28;2067607;28;46693;-67
2023/01/28 04:27:31;;;;;;;;;25.50;23.25;;;;;7.05;61.27;102170.31;2065583;28;45739;-67
2023/01/28 04:28:31;;;;;;;;;27.75;22.25;;;;;7.02;61.17;102162.38;2066738;28;46485;-67
2023/01/28 04:29:31;;;;;;;;;26.00;25.00;;;;;7.02;61.17;102162.38;2064931;27;46540;-67
2023/01/28 04:30:32;;;;;;;;;27.25;23.00;;;;;7.03;61.38;102172.06;2094044;28;46409;-67
2023/01/28 04:31:33;;;;;;;;;24.00;23.50;;;;;7.00;61.40;102167.63;2086235;28;46231;-67
2023/01/28 04:32:33;;;;;;;;;24.25;23.25;;;;;7.02;61.25;102175.56;2060013;28;46470;-68
2023/01/28 04:33:34;;;;;;;;;26.50;23.00;;;;;7.00;61.28;102172.91;2061584;28;46407;-68
2023/01/28 04:34:34;;;;;;;;;26.25;21.75;;;;;7.02;61.15;102170.28;2064067;28;45763;-66
2023/01/28 04:35:34;;;;;;;;;21.50;18.25;;;;;7.02;61.15;102184.38;2060934;28;46291;-66
2023/01/28 04:36:34;;;;;;;;;24.25;22.25;;;;;7.01;61.26;102174.69;2069288;28;46357;-67
2023/01/28 04:37:35;;;;;;;;;30.50;27.25;;;;;7.01;61.03;102179.97;2066103;28;45425;-66
2023/01/28 04:38:35;;;;;;;;;27.75;23.75;;;;;7.02;61.35;102176.44;2069760;28;46033;-66
2023/01/28 04:39:36;;;;;;;;;21.75;21.25;;;;;7.01;61.18;102185.22;2062951;27;45042;-66
2023/01/28 04:40:36;;;;;;;;;24.50;21.50;;;;;7.01;61.20;102177.31;2062975;28;46242;-66
2023/01/28 04:41:36;;;;;;;;;29.00;28.25;;;;;7.02;61.13;102186.13;2069890;27;45747;-66
2023/01/28 04:42:37;;;;;;;;;26.00;23.00;;;;;7.00;61.16;102180.81;2067660;27;46300;-66
2023/01/28 04:43:38;;;;;;;;;20.25;20.25;;;;;7.00;61.03;102185.22;2069484;28;46779;-66
2023/01/28 04:44:38;;;;;;;;;27.75;25.50;;;;;6.99;61.22;102183.44;2067829;27;46430;-67
2023/01/28 04:45:38;;;;;;;;;23.75;23.00;;;;;6.97;60.85;102178.09;2066016;28;46828;-66
2023/01/28 04:46:39;;;;;;;;;22.50;19.75;;;;;6.98;61.17;102174.59;2068356;28;46743;-66
2023/01/28 04:47:41;;;;;;;;;27.50;23.50;;;;;6.98;61.13;102181.63;2068500;28;46568;-66
2023/01/28 04:48:41;;;;;;;;;28.40;28.40;;;;;6.99;61.23;102183.44;2068038;27;47039;-67
2023/01/28 04:49:41;;;;;;;;;23.25;23.25;;;;;6.98;61.33;102182.53;2061342;28;46822;-68
2023/01/28 04:50:43;;;;;;;;;29.00;26.00;;;;;6.99;61.12;102186.09;2058317;28;45310;-66
2023/01/28 04:51:43;;;;;;;;;30.40;24.20;;;;;6.99;61.29;102188.72;2056919;28;46454;-66
2023/01/28 04:52:44;;;;;;;;;30.50;24.75;;;;;6.99;61.04;102183.44;2066314;28;46595;-66
2023/01/28 04:53:44;;;;;;;;;21.50;21.50;;;;;7.00;61.13;102187.84;2069205;27;46168;-66
2023/01/28 04:54:44;;;;;;;;;25.25;25.25;;;;;6.99;60.99;102189.59;2064035;27;46437;-66
2023/01/28 04:55:44;;;;;;;;;34.25;29.25;;;;;6.99;61.24;102192.25;2069421;27;47335;-66
2023/01/28 04:56:45;;;;;;;;;32.75;27.75;;;;;7.00;61.06;102190.50;2066115;28;45815;-66
2023/01/28 04:57:49;;;;;;;;;29.00;24.50;;;;;7.00;61.17;102193.13;2063097;27;46011;-66
2023/01/28 04:58:49;;;;;;;;;26.80;23.60;;;;;7.00;61.16;102194.03;2062143;28;46500;-65
2023/01/28 04:59:49;;;;;;;;;29.50;23.50;;;;;7.00;61.19;102193.13;2064770;28;46649;-65
2023/01/28 05:00:57;;;;;;;;;20.50;20.25;;;;;7.00;61.19;102182.56;2063944;28;47248;-66
2023/01/28 05:01:57;;;;;;;;;24.60;22.40;;;;;7.00;60.93;102187.84;2063632;28;46915;-67
2023/01/28 05:02:58;;;;;;;;;25.75;23.00;;;;;6.99;61.21;102189.59;2064010;27;46793;-66
2023/01/28 05:03:58;;;;;;;;;29.25;27.00;;;;;7.00;61.11;102183.47;2070468;27;46594;-66
2023/01/28 05:05:00;;;;;;;;;26.50;25.50;;;;;7.00;61.08;102188.75;2065473;27;46867;-67
2023/01/28 05:06:00;;;;;;;;;29.60;24.80;;;;;7.01;61.11;102187.00;2062630;28;45646;-67
2023/01/28 05:07:01;;;;;;;;;29.50;27.50;;;;;7.01;60.92;102189.63;2068866;28;46358;-66
2023/01/28 05:08:01;;;;;;;;;26.00;23.75;;;;;7.02;61.06;102188.75;2066167;27;46915;-65
2023/01/28 05:09:02;;;;;;;;;21.25;18.50;;;;;6.99;60.98;102186.97;2070443;28;46299;-68
2023/01/28 05:10:03;;;;;;;;;31.75;30.00;;;;;6.99;61.19;102189.59;2064887;28;46765;-66
2023/01/28 05:11:03;;;;;;;;;28.40;22.60;;;;;7.00;61.00;102190.50;2064353;28;46371;-67
2023/01/28 05:12:04;;;;;;;;;29.50;25.50;;;;;7.01;60.99;102192.28;2070698;27;46422;-66
2023/01/28 05:13:04;;;;;;;;;30.25;24.75;;;;;7.03;61.13;102196.69;2061359;28;46132;-67
2023/01/28 05:14:04;;;;;;;;;27.00;24.50;;;;;7.03;61.00;102194.06;2053728;28;47282;-65
2023/01/28 05:15:05;;;;;;;;;34.00;27.75;;;;;7.03;61.00;102194.06;2057286;28;46578;-69
2023/01/28 05:16:06;;;;;;;;;30.20;27.40;;;;;7.03;60.95;102188.78;2061877;28;45152;-67
2023/01/28 05:17:06;;;;;;;;;32.50;29.00;;;;;7.03;61.25;102195.81;2061126;28;46290;-66
2023/01/28 05:18:07;;;;;;;;;28.75;27.75;;;;;7.03;60.99;102194.06;2069357;27;46732;-66
2023/01/28 05:19:07;;;;;;;;;24.50;22.25;;;;;7.02;60.93;102196.69;2061264;28;45500;-67
2023/01/28 05:20:09;;;;;;;;;27.75;26.75;;;;;7.02;60.92;102188.75;2062184;28;45437;-67
2023/01/28 05:21:09;;;;;;;;;33.20;31.60;;;;;7.01;61.23;102195.78;2066066;27;45702;-66
2023/01/28 05:22:09;;;;;;;;;26.00;24.75;;;;;7.03;61.05;102193.19;2070238;27;46772;-66
2023/01/28 05:23:10;;;;;;;;;27.00;22.00;;;;;7.01;60.83;102179.06;2068581;27;46269;-66
2023/01/28 05:24:10;;;;;;;;;33.50;30.00;;;;;7.00;60.94;102186.09;2068716;27;46212;-66
2023/01/28 05:25:12;;;;;;;;;27.50;23.50;;;;;7.00;60.95;102188.75;2067455;27;45463;-68